.
WxDataArchive / Data Records for 2010-11-01
2010-10-31 November 2010 2010-11-02

Data Records for Monday, 01 November 2010

Time	Temp	Chill	HIndex	Humid	Dewpt	 Wind 	HiWind	WindDir	Rain 	Barom 
-----	----	-----	------	-----	-----	------	------	-------	-----	----- 
00:00	32.5	32.5	32.5	78	26.4	0	0	---	0.00	30.316 
00:05	32.4	32.4	32.4	79	26.6	0	0	---	0.00	30.316 
00:10	32.4	32.4	32.4	80	26.9	0	0	---	0.00	30.316 
00:15	32.2	32.2	32.2	79	26.4	0	0	---	0.00	30.313 
00:20	32.1	32.1	32.1	79	26.3	0	0	---	0.00	30.313 
00:25	32.1	32.1	32.1	79	26.3	0	0	---	0.00	30.313 
00:30	31.9	31.9	31.9	79	26.1	0	0	---	0.00	30.315 
00:35	31.8	31.8	31.8	79	26.0	0	0	---	0.00	30.315 
00:40	31.8	31.8	31.8	79	26.0	0	0	---	0.00	30.315 
00:45	31.6	31.6	31.6	79	25.8	0	0	---	0.00	30.312 
00:50	31.5	31.5	31.5	79	25.8	0	0	---	0.00	30.312 
00:55	31.5	31.5	31.5	80	26.1	0	0	---	0.00	30.312 
01:00	31.5	31.5	31.5	80	26.1	0	0	---	0.00	30.310 
01:05	31.5	31.5	31.5	80	26.1	0	0	---	0.00	30.310 
01:10	31.3	31.3	31.3	80	25.9	0	0	---	0.00	30.310 
01:15	31.3	31.3	31.3	80	25.9	0	0	---	0.00	30.310 
01:20	31.2	31.2	31.2	80	25.8	0	0	---	0.00	30.310 
01:25	31.3	31.3	31.3	81	26.2	0	0	---	0.00	30.310 
01:30	31.3	31.3	31.3	81	26.2	0	0	---	0.00	30.314 
01:35	31.6	31.6	31.6	81	26.5	0	0	---	0.00	30.314 
01:40	31.8	31.8	31.8	81	26.6	0	0	---	0.00	30.314 
01:45	31.9	31.9	31.9	81	26.7	0	0	---	0.00	30.324 
01:50	32.2	32.2	32.2	81	27.0	0	0	---	0.00	30.324 
01:55	32.4	32.4	32.4	80	26.9	0	0	---	0.00	30.324 
02:00	32.4	32.4	32.4	80	26.9	0	0	---	0.00	30.328 
02:05	32.4	32.4	32.4	80	26.9	0	0	---	0.00	30.328 
02:10	32.5	32.5	32.5	79	26.7	0	0	---	0.00	30.328 
02:15	32.4	32.4	32.4	79	26.6	0	0	---	0.00	30.339 
02:20	32.4	32.4	32.4	79	26.6	0	0	---	0.00	30.339 
02:25	32.4	32.4	32.4	79	26.6	0	0	---	0.00	30.339 
02:30	32.2	32.2	32.2	80	26.7	0	0	---	0.00	30.340 
02:35	32.4	32.4	32.4	80	26.9	0	0	---	0.00	30.340 
02:40	32.4	32.4	32.4	80	26.9	0	0	---	0.00	30.340 
02:45	32.7	32.7	32.7	81	27.5	0	0	---	0.00	30.341 
02:50	33.5	33.5	33.5	80	28.0	1	7	112	0.00	30.341 
02:55	34.4	34.4	34.4	78	28.3	0	2	112	0.00	30.341 
03:00	35.0	35.0	35.0	77	28.5	1	3	112	0.00	30.341 
03:05	35.3	35.3	35.3	77	28.8	0	2	90	0.00	30.341 
03:10	35.3	35.3	35.3	76	28.5	1	4	90	0.00	30.341 
03:15	35.3	35.3	35.3	76	28.5	0	5	112	0.00	30.347 
03:20	35.2	35.2	35.2	77	28.7	1	4	90	0.00	30.347 
03:25	35.0	35.0	35.0	77	28.5	1	5	90	0.00	30.347 
03:30	34.9	34.9	34.9	77	28.4	1	3	90	0.00	30.351 
03:35	34.7	34.7	34.7	77	28.2	0	2	90	0.00	30.351 
03:40	34.6	34.6	34.6	77	28.1	1	4	90	0.00	30.351 
03:45	34.4	34.4	34.4	78	28.3	1	3	90	0.00	30.355 
03:50	34.3	34.3	34.3	78	28.2	0	2	90	0.00	30.355 
03:55	34.1	34.1	34.1	78	28.0	0	2	90	0.00	30.355 
04:00	34.0	34.0	34.0	78	27.9	0	1	90	0.00	30.364 
04:05	33.8	33.8	33.8	79	28.0	0	2	90	0.00	30.364 
04:10	33.8	33.8	33.8	79	28.0	0	1	90	0.00	30.364 
04:15	33.7	33.7	33.7	79	27.9	0	1	90	0.00	30.369 
04:20	33.5	33.5	33.5	79	27.7	0	1	90	0.00	30.369 
04:25	33.4	33.4	33.4	79	27.6	0	1	90	0.00	30.369 
04:30	33.4	33.4	33.4	78	27.3	0	0	---	0.00	30.373 
04:35	33.1	33.1	33.1	78	27.0	0	0	---	0.00	30.373 
04:40	32.8	32.8	32.8	78	26.7	0	0	---	0.00	30.373 
04:45	32.7	32.7	32.7	78	26.6	0	0	---	0.00	30.371 
04:50	32.4	32.4	32.4	79	26.6	0	0	---	0.00	30.371 
04:55	32.2	32.2	32.2	79	26.4	0	0	---	0.00	30.371 
05:00	31.9	31.9	31.9	79	26.1	0	0	---	0.00	30.381 
05:05	31.8	31.8	31.8	79	26.0	0	0	---	0.00	30.381 
05:10	31.5	31.5	31.5	79	25.8	0	0	---	0.00	30.381 
05:15	31.2	31.2	31.2	79	25.5	0	0	---	0.00	30.385 
05:20	30.9	30.9	30.9	79	25.2	0	0	---	0.00	30.385 
05:25	30.6	30.6	30.6	80	25.2	0	0	---	0.00	30.385 
05:30	30.3	30.3	30.3	80	24.9	0	0	---	0.00	30.389 
05:35	30.1	30.1	30.1	80	24.7	0	0	---	0.00	30.389 
05:40	29.8	29.8	29.8	81	24.7	0	0	---	0.00	30.389 
05:45	29.7	29.7	29.7	81	24.6	0	0	---	0.00	30.390 
05:50	29.4	29.4	29.4	81	24.3	0	0	---	0.00	30.390 
05:55	29.3	29.3	29.3	82	24.5	0	0	---	0.00	30.390 
06:00	29.3	29.3	29.3	82	24.5	0	0	---	0.00	30.402 
06:05	29.1	29.1	29.1	83	24.6	0	0	---	0.00	30.402 
06:10	29.1	29.1	29.1	83	24.6	0	0	---	0.00	30.402 
06:15	29.3	29.3	29.3	83	24.8	0	0	---	0.00	30.408 
06:20	29.3	29.3	29.3	83	24.8	0	0	---	0.00	30.408 
06:25	29.3	29.3	29.3	84	25.1	0	0	---	0.00	30.408 
06:30	29.4	29.4	29.4	84	25.2	0	0	---	0.00	30.412 
06:35	29.4	29.4	29.4	84	25.2	0	0	---	0.00	30.412 
06:40	29.4	29.4	29.4	84	25.2	0	0	---	0.00	30.412 
06:45	29.4	29.4	29.4	84	25.2	0	0	---	0.00	30.412 
06:50	29.4	29.4	29.4	84	25.2	0	0	---	0.00	30.412 
06:55	29.3	29.3	29.3	84	25.1	0	0	---	0.00	30.412 
07:00	29.1	29.1	29.1	84	24.9	0	0	---	0.00	30.413 
07:05	29.3	29.3	29.3	84	25.1	0	0	---	0.00	30.413 
07:10	29.3	29.3	29.3	85	25.4	0	0	---	0.00	30.413 
07:15	29.1	29.1	29.1	85	25.2	0	0	---	0.00	30.418 
07:20	29.1	29.1	29.1	86	25.4	0	0	---	0.00	30.418 
07:25	29.1	29.1	29.1	86	25.4	0	0	---	0.00	30.418 
07:30	29.1	29.1	29.1	86	25.4	0	1	90	0.00	30.422 
07:35	29.3	29.3	29.3	87	25.9	0	0	---	0.00	30.422 
07:40	29.4	29.4	29.4	87	26.0	0	0	---	0.00	30.422 
07:45	29.7	29.7	29.7	86	26.0	0	2	90	0.00	30.425 
07:50	30.1	30.1	30.1	85	26.1	0	2	90	0.00	30.425 
07:55	30.6	30.6	30.6	83	26.1	1	3	90	0.00	30.425 
08:00	30.7	30.7	30.7	82	25.9	0	2	90	0.00	30.427 
08:05	30.9	30.9	30.9	81	25.8	0	1	90	0.00	30.427 
08:10	30.9	30.9	30.9	81	25.8	0	1	90	0.00	30.427 
08:15	30.7	30.7	30.7	81	25.6	0	0	---	0.00	30.435 
08:20	30.6	30.6	30.6	80	25.2	0	0	---	0.00	30.435 
08:25	30.6	30.6	30.6	80	25.2	0	1	90	0.00	30.435 
08:30	30.4	30.4	30.4	80	25.0	0	0	---	0.00	30.446 
08:35	30.4	30.4	30.4	81	25.3	0	0	---	0.00	30.446 
08:40	30.3	30.3	30.3	81	25.2	0	0	---	0.00	30.446 
08:45	30.3	30.3	30.3	81	25.2	0	0	---	0.00	30.450 
08:50	30.3	30.3	30.3	82	25.5	0	1	90	0.00	30.450 
08:55	30.6	30.6	30.6	82	25.8	0	0	---	0.00	30.450 
09:00	30.7	30.7	30.7	82	25.9	0	0	---	0.00	30.461 
09:05	31.0	31.0	31.0	82	26.2	0	1	90	0.00	30.461 
09:10	31.5	31.5	31.5	81	26.4	0	1	90	0.00	30.461 
09:15	31.9	31.9	31.9	81	26.7	0	1	90	0.00	30.473 
09:20	32.5	32.5	32.5	80	27.0	0	3	90	0.00	30.473 
09:25	33.2	33.2	33.2	78	27.1	0	2	90	0.00	30.473 
09:30	34.1	34.1	34.1	76	27.3	0	2	90	0.00	30.473 
09:35	35.0	35.0	35.0	74	27.6	0	0	---	0.00	30.473 
09:40	35.6	35.6	35.6	73	27.8	0	0	---	0.00	30.473 
09:45	36.3	36.3	36.3	71	27.8	1	5	112	0.00	30.472 
09:50	36.8	36.8	36.8	71	28.3	0	1	112	0.00	30.472 
09:55	37.3	37.3	37.3	70	28.4	0	2	112	0.00	30.472 
10:00	37.9	37.9	37.9	70	29.0	2	5	90	0.00	30.474 
10:05	38.5	38.5	38.5	69	29.2	2	7	90	0.00	30.474 
10:10	38.6	38.6	38.6	69	29.3	2	9	90	0.00	30.474 
10:15	38.9	38.9	38.9	68	29.3	1	6	68	0.00	30.481 
10:20	39.3	39.3	39.3	68	29.6	2	5	112	0.00	30.481 
10:25	39.6	39.6	39.6	67	29.6	2	4	112	0.00	30.481 
10:30	40.1	40.1	40.1	67	30.0	1	4	90	0.00	30.486 
10:35	40.6	40.6	40.6	68	30.9	1	3	90	0.00	30.486 
10:40	41.1	41.1	41.1	66	30.6	2	4	90	0.00	30.486 
10:45	41.3	41.3	41.3	66	30.8	1	3	90	0.00	30.480 
10:50	41.8	41.8	41.8	65	30.9	2	6	90	0.00	30.480 
10:55	41.8	41.8	41.8	65	30.9	2	4	90	0.00	30.480 
11:00	41.9	41.9	41.9	64	30.6	2	6	90	0.00	30.482 
11:05	42.1	42.1	42.1	65	31.2	2	5	112	0.00	30.482 
11:10	42.3	42.3	42.3	65	31.4	2	5	90	0.00	30.482 
11:15	42.8	42.8	42.8	63	31.1	1	4	90	0.00	30.483 
11:20	43.1	43.1	43.1	63	31.4	2	5	90	0.00	30.483 
11:25	43.3	43.3	43.3	63	31.6	1	5	112	0.00	30.483 
11:30	43.6	43.6	43.6	62	31.5	2	9	90	0.00	30.484 
11:35	43.8	43.8	43.8	61	31.2	2	6	68	0.00	30.484 
11:40	44.1	44.1	44.1	60	31.1	1	7	68	0.00	30.484 
11:45	44.1	44.1	44.1	60	31.1	2	5	90	0.00	30.480 
11:50	44.5	44.5	44.5	59	31.1	1	4	90	0.00	30.480 
11:55	44.6	44.6	44.6	59	31.2	3	7	112	0.00	30.480 
12:00	45.1	45.1	45.1	58	31.2	2	6	90	0.00	30.482 
12:05	45.4	45.4	45.4	57	31.1	2	6	90	0.00	30.482 
12:10	45.2	45.2	45.2	58	31.3	2	4	90	0.00	30.482 
12:15	45.2	45.2	45.2	56	30.4	3	6	90	0.00	30.481 
12:20	45.4	45.4	45.4	55	30.2	2	6	90	0.00	30.481 
12:25	45.5	45.5	45.5	52	28.9	2	6	112	0.00	30.481 
12:30	45.7	45.7	45.7	54	30.0	2	5	90	0.00	30.475 
12:35	45.5	45.5	45.5	54	29.8	3	6	90	0.00	30.475 
12:40	45.5	45.5	45.5	54	29.8	1	4	90	0.00	30.475 
12:45	46.0	46.0	46.0	54	30.3	2	7	90	0.00	30.473 
12:50	46.1	46.1	46.1	54	30.4	2	6	90	0.00	30.473 
12:55	46.0	46.0	46.0	54	30.3	1	5	112	0.00	30.473 
13:00	46.0	46.0	46.0	54	30.3	2	5	90	0.00	30.474 
13:05	46.1	46.1	46.1	54	30.4	2	5	90	0.00	30.474 
13:10	46.2	46.2	46.2	55	30.9	1	4	90	0.00	30.474 
13:15	46.7	46.7	46.7	53	30.5	2	6	90	0.00	30.466 
13:20	47.0	47.0	47.0	51	29.8	0	1	90	0.00	30.466 
13:25	47.0	47.0	47.0	52	30.3	1	6	90	0.00	30.466 
13:30	47.0	47.0	47.0	52	30.3	1	4	90	0.00	30.455 
13:35	47.4	47.4	47.4	50	29.7	0	3	22	0.00	30.455 
13:40	47.6	47.6	47.6	50	29.9	1	5	68	0.00	30.455 
13:45	47.7	47.7	47.7	46	27.9	2	7	112	0.00	30.450 
13:50	47.7	47.7	47.7	46	27.9	2	5	112	0.00	30.450 
13:55	47.9	47.9	47.9	47	28.7	1	3	112	0.00	30.450 
14:00	48.2	48.2	48.2	49	29.9	0	3	112	0.00	30.447 
14:05	48.2	48.2	48.2	49	29.9	3	8	90	0.00	30.447 
14:10	48.3	48.3	48.3	46	28.5	2	6	112	0.00	30.447 
14:15	48.5	48.5	48.5	48	29.7	2	6	90	0.00	30.440 
14:20	48.5	48.5	48.5	47	29.2	2	5	90	0.00	30.440 
14:25	48.6	48.6	48.6	48	29.8	2	6	90	0.00	30.440 
14:30	48.6	48.6	48.6	46	28.8	2	7	112	0.00	30.433 
14:35	48.6	48.6	48.6	43	27.1	3	6	112	0.00	30.433 
14:40	48.9	48.9	48.9	44	28.0	3	10	112	0.00	30.433 
14:45	48.9	48.9	48.9	45	28.5	2	5	112	0.00	30.431 
14:50	49.1	49.1	49.1	44	28.1	1	4	112	0.00	30.431 
14:55	49.4	49.4	49.4	42	27.3	2	6	112	0.00	30.431 
15:00	49.2	49.2	49.2	43	27.7	3	7	112	0.00	30.429 
15:05	49.2	49.2	49.2	43	27.7	3	9	90	0.00	30.429 
15:10	49.4	49.4	49.4	43	27.9	2	6	90	0.00	30.429 
15:15	49.8	49.8	49.8	42	27.6	1	5	90	0.00	30.429 
15:20	49.8	49.8	49.8	43	28.2	3	9	112	0.00	30.429 
15:25	49.8	49.8	49.8	40	26.5	3	10	90	0.00	30.429 
15:30	49.9	49.9	49.9	42	27.7	1	5	112	0.00	30.431 
15:35	50.2	50.2	50.2	41	27.4	1	5	112	0.00	30.431 
15:40	50.4	50.4	50.4	40	27.0	3	7	90	0.00	30.431 
15:45	50.4	50.4	50.4	40	27.0	3	7	90	0.00	30.431 
15:50	50.2	50.2	50.2	41	27.4	3	6	90	0.00	30.431 
15:55	50.4	50.4	50.4	41	27.6	2	6	112	0.00	30.431 
16:00	50.5	50.5	50.5	39	26.5	1	6	90	0.00	30.430 
16:05	50.7	50.7	50.7	38	26.0	2	9	112	0.00	30.430 
16:10	50.7	50.7	50.7	39	26.7	2	7	112	0.00	30.430 
16:15	50.7	50.7	50.7	39	26.7	3	13	90	0.00	30.431 
16:20	50.7	50.7	50.7	39	26.7	2	7	90	0.00	30.431 
16:25	50.5	50.5	50.5	39	26.5	3	7	90	0.00	30.431 
16:30	50.5	50.5	50.5	38	25.9	3	10	90	0.00	30.431 
16:35	50.4	50.4	50.4	38	25.8	3	9	90	0.00	30.431 
16:40	50.4	50.4	50.4	39	26.4	4	8	90	0.00	30.431 
16:45	50.2	50.2	50.2	39	26.2	3	9	112	0.00	30.431 
16:50	50.1	50.1	50.1	40	26.7	1	3	112	0.00	30.431 
16:55	50.2	50.2	50.2	39	26.2	1	6	90	0.00	30.431 
17:00	50.2	50.2	50.2	39	26.2	2	9	90	0.00	30.431 
17:05	50.2	50.2	50.2	39	26.2	2	6	90	0.00	30.431 
17:10	50.2	50.2	50.2	40	26.8	1	9	68	0.00	30.431 
17:15	50.1	50.1	50.1	39	26.1	3	6	112	0.00	30.435 
17:20	49.9	49.9	49.9	40	26.6	2	6	112	0.00	30.435 
17:25	49.9	49.9	49.9	40	26.6	2	5	90	0.00	30.435 
17:30	49.9	49.9	49.9	39	25.9	2	7	112	0.00	30.434 
17:35	49.8	49.8	49.8	39	25.9	2	5	90	0.00	30.434 
17:40	49.6	49.6	49.6	40	26.3	2	7	112	0.00	30.434 
17:45	49.5	49.5	49.5	41	26.8	3	10	90	0.00	30.434 
17:50	49.4	49.4	49.4	41	26.7	2	5	90	0.00	30.434 
17:55	49.2	49.2	49.2	41	26.5	2	3	90	0.00	30.434 
18:00	49.1	49.1	49.1	41	26.4	2	5	112	0.00	30.434 
18:05	48.9	48.9	48.9	41	26.2	1	5	112	0.00	30.434 
18:10	48.8	48.8	48.8	42	26.7	1	4	90	0.00	30.434 
18:15	48.6	48.6	48.6	43	27.1	0	3	90	0.00	30.435 
18:20	48.2	48.2	48.2	43	26.8	0	2	90	0.00	30.435 
18:25	48.0	48.0	48.0	43	26.6	0	3	90	0.00	30.435 
18:30	47.6	47.6	47.6	43	26.2	1	3	90	0.00	30.436 
18:35	47.3	47.3	47.3	44	26.5	0	1	90	0.00	30.436 
18:40	46.8	46.8	46.8	45	26.6	0	2	90	0.00	30.436 
18:45	46.5	46.5	46.5	45	26.3	0	4	112	0.00	30.439 
18:50	46.2	46.2	46.2	46	26.6	0	1	112	0.00	30.439 
18:55	45.8	45.8	45.8	46	26.2	0	1	112	0.00	30.439 
19:00	45.4	45.4	45.4	47	26.4	0	0	---	0.00	30.441 
19:05	45.1	45.1	45.1	48	26.6	0	1	112	0.00	30.441 
19:10	44.6	44.6	44.6	49	26.6	0	1	112	0.00	30.441 
19:15	44.3	44.3	44.3	49	26.4	0	1	112	0.00	30.448 
19:20	43.9	43.9	43.9	50	26.5	0	0	---	0.00	30.448 
19:25	43.5	43.5	43.5	50	26.1	0	0	---	0.00	30.448 
19:30	43.1	43.1	43.1	51	26.2	0	0	---	0.00	30.455 
19:35	42.6	42.6	42.6	52	26.2	0	0	---	0.00	30.455 
19:40	42.1	42.1	42.1	53	26.2	0	0	---	0.00	30.455 
19:45	41.6	41.6	41.6	54	26.2	0	0	---	0.00	30.459 
19:50	41.2	41.2	41.2	55	26.3	0	0	---	0.00	30.459 
19:55	40.9	40.9	40.9	55	26.0	0	0	---	0.00	30.459 
20:00	40.5	40.5	40.5	55	25.6	0	0	---	0.00	30.465 
20:05	40.2	40.2	40.2	56	25.8	0	0	---	0.00	30.465 
20:10	39.8	39.8	39.8	57	25.8	0	0	---	0.00	30.465 
20:15	39.5	39.5	39.5	58	26.0	0	0	---	0.00	30.474 
20:20	39.1	39.1	39.1	59	26.0	0	0	---	0.00	30.474 
20:25	38.9	38.9	38.9	60	26.2	0	0	---	0.00	30.474 
20:30	38.8	38.8	38.8	60	26.1	0	0	---	0.00	30.476 
20:35	38.8	38.8	38.8	59	25.7	0	0	---	0.00	30.476 
20:40	38.5	38.5	38.5	60	25.8	0	0	---	0.00	30.476 
20:45	38.3	38.3	38.3	61	26.0	0	1	112	0.00	30.480 
20:50	38.6	38.6	38.6	60	25.9	0	1	112	0.00	30.480 
20:55	38.8	38.8	38.8	59	25.7	0	1	112	0.00	30.480 
21:00	39.1	39.1	39.1	59	26.0	0	1	112	0.00	30.486 
21:05	39.1	39.1	39.1	59	26.0	0	0	---	0.00	30.486 
21:10	39.1	39.1	39.1	59	26.0	0	1	112	0.00	30.486 
21:15	39.1	39.1	39.1	59	26.0	0	1	112	0.00	30.485 
21:20	38.9	38.9	38.9	59	25.8	0	2	112	0.00	30.485 
21:25	38.8	38.8	38.8	59	25.7	0	0	---	0.00	30.485 
21:30	38.5	38.5	38.5	60	25.8	0	0	---	0.00	30.489 
21:35	38.2	38.2	38.2	60	25.6	0	0	---	0.00	30.489 
21:40	37.9	37.9	37.9	61	25.7	0	0	---	0.00	30.489 
21:45	37.6	37.6	37.6	62	25.8	0	1	112	0.00	30.493 
21:50	37.5	37.5	37.5	62	25.7	0	1	112	0.00	30.493 
21:55	37.5	37.5	37.5	62	25.7	0	2	112	0.00	30.493 
22:00	37.5	37.5	37.5	62	25.7	0	1	112	0.00	30.496 
22:05	37.5	37.5	37.5	62	25.7	0	2	112	0.00	30.496 
22:10	37.3	37.3	37.3	62	25.5	0	2	112	0.00	30.496 
22:15	37.2	37.2	37.2	63	25.8	0	2	112	0.00	30.491 
22:20	37.0	37.0	37.0	63	25.6	0	1	112	0.00	30.491 
22:25	36.9	36.9	36.9	64	25.9	0	1	112	0.00	30.491 
22:30	36.8	36.8	36.8	64	25.8	0	1	112	0.00	30.493 
22:35	36.6	36.6	36.6	65	26.0	0	1	112	0.00	30.493 
22:40	36.5	36.5	36.5	65	25.9	0	2	112	0.00	30.493 
22:45	36.3	36.3	36.3	65	25.7	0	2	112	0.00	30.489 
22:50	36.2	36.2	36.2	65	25.6	0	2	112	0.00	30.489 
22:55	36.0	36.0	36.0	65	25.4	0	2	112	0.00	30.489 
23:00	36.0	36.0	36.0	65	25.4	0	1	112	0.00	30.487 
23:05	35.8	35.8	35.8	66	25.6	0	1	112	0.00	30.487 
23:10	35.6	35.6	35.6	66	25.4	0	2	112	0.00	30.487 
23:15	35.5	35.5	35.5	66	25.3	0	1	112	0.00	30.483 
23:20	35.3	35.3	35.3	67	25.5	0	1	112	0.00	30.483 
23:25	35.2	35.2	35.2	67	25.4	0	1	112	0.00	30.483 
23:30	35.2	35.2	35.2	67	25.4	0	1	112	0.00	30.487 
23:35	35.0	35.0	35.0	68	25.5	0	1	112	0.00	30.487 
23:40	34.9	34.9	34.9	68	25.4	0	1	112	0.00	30.487 
23:45	34.7	34.7	34.7	68	25.2	0	1	112	0.00	30.491 
23:50	34.6	34.6	34.6	69	25.5	0	0	---	0.00	30.491 
23:55	34.1	34.1	34.1	69	25.0	0	0	---	0.00	30.491 

CoCoRaHS
IN-AL-39
A2 Web Hosting
Creative Commons License
GoDaddy
search engine by freefind advanced

loaded 2018-11-16 23:57:04 • last modified 2010-11-18 10:43:29
Privacy PolicyDisclaimer
• wx.awcolley.com is powered by PmWiki v.2002016 •
• all content (unless otherwise noted) © 2018 A W Colley